Time;durP1;ratioP1;P1;durP2;ratioP2;P2;SDS_P1;SDS_P2;PMS_P1;PMS_P2;Temp;Humidity;BMP_temperature;BMP_pressure;BME280_temperature;BME280_humidity;BME280_pressure;Samples;Min_cycle;Max_cycle;Signal;HPM_P1;HPM_P2
2022/12/01 00:01:28;;;;;;;12.07;10.00;;;;;;;15.60;58.69;99560.72;4955107;29;20484;-70
2022/12/01 00:03:54;;;;;;;13.63;10.00;;;;;;;15.56;58.77;99565.22;4955038;29;20035;-70
2022/12/01 00:06:20;;;;;;;12.13;9.13;;;;;;;15.57;58.81;99561.69;4955068;29;20392;-71
2022/12/01 00:11:34;;;;;;;13.95;9.93;;;;;;;15.55;58.74;99563.50;4954716;28;20102;-71
2022/12/01 00:14:00;;;;;;;13.00;9.55;;;;;;;15.56;58.84;99554.69;4954877;29;20037;-70
2022/12/01 00:16:25;;;;;;;12.15;9.82;;;;;;;15.55;58.66;99558.25;4954818;29;20520;-70
2022/12/01 00:18:52;;;;;;;14.20;10.25;;;;;;;15.55;58.84;99552.97;4954808;29;20023;-71
2022/12/01 00:21:20;;;;;;;12.57;9.50;;;;;;;15.51;58.79;99556.66;4954928;29;20476;-71
2022/12/01 00:23:47;;;;;;;15.30;10.27;;;;;;;15.48;58.92;99556.75;4954762;29;20034;-70
2022/12/01 00:26:14;;;;;;;13.02;9.75;;;;;;;15.47;59.01;99559.44;4954549;29;20027;-71
2022/12/01 00:28:39;;;;;;;10.80;9.02;;;;;;;15.48;58.60;99554.13;4954367;29;20051;-71
2022/12/01 00:31:09;;;;;;;13.18;9.05;;;;;;;15.49;58.79;99553.22;4954212;29;20553;-71
2022/12/01 00:33:34;;;;;;;13.27;9.93;;;;;;;15.51;58.69;99551.41;4954636;29;20110;-70
2022/12/01 00:36:00;;;;;;;11.25;8.90;;;;;;;15.51;58.92;99551.41;4954683;29;20098;-71
2022/12/01 00:38:27;;;;;;;11.88;9.23;;;;;;;15.50;58.61;99549.66;4954583;29;20428;-71
2022/12/01 00:40:52;;;;;;;12.18;9.25;;;;;;;15.50;58.68;99547.03;4954299;29;20027;-70
2022/12/01 00:43:18;;;;;;;12.63;9.30;;;;;;;15.50;58.78;99548.81;4954506;29;20082;-71
2022/12/01 00:45:43;;;;;;;12.63;10.15;;;;;;;15.50;58.68;99548.81;4954664;29;20379;-70
2022/12/01 00:48:09;;;;;;;12.38;9.27;;;;;;;15.48;58.72;99556.75;4954494;29;20085;-70
2022/12/01 00:50:34;;;;;;;13.52;9.88;;;;;;;15.44;58.70;99557.78;4921468;29;20031;-71
2022/12/01 00:52:59;;;;;;;12.68;9.00;;;;;;;15.46;58.58;99552.47;4954540;29;20030;-70
2022/12/01 00:55:25;;;;;;;12.27;9.27;;;;;;;15.45;58.57;99548.97;4953642;29;20030;-71
2022/12/01 00:57:50;;;;;;;13.43;9.25;;;;;;;15.44;58.80;99540.22;4954441;29;20019;-71
2022/12/01 01:00:16;;;;;;;11.57;9.23;;;;;;;15.46;58.57;99537.56;4954553;29;20024;-71
2022/12/01 01:02:42;;;;;;;11.80;9.35;;;;;;;15.41;58.77;99544.75;4954397;28;20554;-71
2022/12/01 01:05:08;;;;;;;13.18;9.82;;;;;;;15.38;58.67;99539.59;4958290;29;20106;-70
2022/12/01 01:07:33;;;;;;;15.32;10.02;;;;;;;15.43;58.63;99548.16;4958244;29;20114;-71
2022/12/01 01:09:59;;;;;;;13.20;10.20;;;;;;;15.40;58.57;99538.63;4957747;28;20023;-71
2022/12/01 01:12:26;;;;;;;12.15;9.25;;;;;;;15.39;58.69;99541.28;4958223;29;20542;-70
2022/12/01 01:14:51;;;;;;;11.35;8.98;;;;;;;15.36;58.82;99538.78;4958127;29;20032;-70
2022/12/01 01:17:17;;;;;;;11.75;8.80;;;;;;;15.37;58.59;99536.13;4958073;29;20093;-70
2022/12/01 01:19:42;;;;;;;12.57;9.38;;;;;;;15.37;58.65;99533.50;4958137;29;20038;-71
2022/12/01 01:22:08;;;;;;;14.02;10.02;;;;;;;15.34;58.71;99538.00;4957978;29;20038;-70
2022/12/01 01:24:33;;;;;;;12.75;9.88;;;;;;;15.36;58.66;99525.66;4957557;29;20023;-70
2022/12/01 01:26:59;;;;;;;12.43;9.52;;;;;;;15.34;58.46;99532.75;4957961;29;20436;-70
2022/12/01 01:29:24;;;;;;;13.65;10.05;;;;;;;15.33;58.58;99537.13;4957689;29;20134;-71
2022/12/01 01:31:50;;;;;;;13.00;9.70;;;;;;;15.35;58.76;99539.72;4957726;29;20162;-70
2022/12/01 01:34:15;;;;;;;12.35;9.02;;;;;;;15.29;58.78;99536.38;4957829;29;20039;-70
2022/12/01 01:36:41;;;;;;;12.65;9.55;;;;;;;15.33;58.82;99531.00;4957774;29;20027;-70
2022/12/01 01:39:06;;;;;;;11.95;9.43;;;;;;;15.30;58.66;99532.84;4940291;29;20110;-70
2022/12/01 01:41:32;;;;;;;12.68;9.13;;;;;;;15.34;58.76;99538.00;4957651;29;20038;-70
2022/12/01 01:44:00;;;;;;;12.98;9.82;;;;;;;15.32;58.38;99543.31;4957512;29;20481;-70
2022/12/01 01:46:31;;;;;;;12.73;9.63;;;;;;;15.26;58.73;99549.63;4957510;29;20035;-70
2022/12/01 01:49:05;;;;;;;11.75;9.18;;;;;;;15.27;58.43;99551.34;4957651;29;20359;-70
2022/12/01 01:51:47;;;;;;;12.02;9.20;;;;;;;15.23;58.71;99549.75;4957633;29;20098;-71
2022/12/01 01:54:15;;;;;;;12.48;8.77;;;;;;;15.24;58.53;99547.97;4957426;29;20027;-70
2022/12/01 01:56:43;;;;;;;14.02;9.77;;;;;;;15.20;58.54;99547.22;4957478;29;20027;-71
2022/12/01 01:59:12;;;;;;;12.75;9.15;;;;;;;15.18;58.32;99546.44;4957459;29;20033;-70
2022/12/01 02:01:37;;;;;;;13.95;9.25;;;;;;;15.21;58.71;99554.19;4940165;29;20436;-70
2022/12/01 02:04:03;;;;;;;12.40;9.38;;;;;;;15.22;58.35;99550.69;4957223;29;20031;-70
2022/12/01 02:06:28;;;;;;;12.20;8.73;;;;;;;15.23;58.49;99551.50;4956853;29;20241;-71
2022/12/01 02:08:54;;;;;;;12.00;9.15;;;;;;;15.21;58.42;99548.94;4957159;29;20472;-70
2022/12/01 02:12:00;;;;;;;12.18;9.27;;;;;;;15.18;58.66;99554.31;4956939;28;20031;-71
2022/12/01 02:14:53;;;;;;;12.03;8.37;;;;;;;15.22;58.81;99555.94;4955457;28;20059;-70
2022/12/01 02:17:34;;;;;;;11.88;9.15;;;;;;;15.21;58.83;99554.19;4957017;29;20514;-70
2022/12/01 02:20:28;;;;;;;11.80;8.95;;;;;;;15.21;58.75;99553.34;4957020;29;20152;-71
2022/12/01 02:23:16;;;;;;;11.65;8.57;;;;;;;15.25;58.63;99560.22;4956621;29;20117;-69
2022/12/01 02:25:55;;;;;;;12.73;9.32;;;;;;;15.23;58.47;99568.16;4956458;29;20027;-70
2022/12/01 02:28:24;;;;;;;11.60;8.68;;;;;;;15.22;58.66;99555.94;4956710;28;20478;-70
2022/12/01 02:30:57;;;;;;;11.10;8.50;;;;;;;15.17;58.34;99563.13;4956767;29;20135;-70
2022/12/01 02:33:34;;;;;;;11.63;8.75;;;;;;;15.16;58.25;99564.03;4956651;29;20035;-71
2022/12/01 02:36:11;;;;;;;13.07;9.70;;;;;;;15.18;58.65;99567.47;4956331;29;20077;-70
2022/12/01 02:38:36;;;;;;;11.93;9.15;;;;;;;15.16;58.49;99564.88;4956826;29;20034;-71
2022/12/01 02:41:15;;;;;;;12.82;9.50;;;;;;;15.17;58.39;99563.13;4956604;29;20035;-70
2022/12/01 02:43:58;;;;;;;11.88;9.13;;;;;;;15.18;58.58;99564.81;4956458;29;20118;-71
2022/12/01 02:46:31;;;;;;;12.40;9.23;;;;;;;15.18;58.38;99570.09;4956610;29;20094;-71
2022/12/01 02:49:01;;;;;;;13.27;9.70;;;;;;;15.16;58.34;99567.50;4956646;29;20510;-71
2022/12/01 02:51:32;;;;;;;13.43;9.05;;;;;;;15.13;58.34;99566.75;4956190;29;20027;-70
2022/12/01 02:54:01;;;;;;;12.52;9.15;;;;;;;15.16;58.35;99561.41;4956355;29;20031;-69
2022/12/01 02:56:26;;;;;;;12.63;9.07;;;;;;;15.13;58.40;99565.00;4956610;29;20094;-70
2022/12/01 02:58:52;;;;;;;13.52;9.95;;;;;;;15.16;58.61;99561.41;4956540;29;20444;-70
2022/12/01 03:01:31;;;;;;;11.95;9.25;;;;;;;15.18;58.32;99562.19;4956547;29;20151;-69
2022/12/01 03:04:12;;;;;;;12.45;9.13;;;;;;;15.15;58.58;99560.53;4955996;29;20047;-70
2022/12/01 03:06:48;;;;;;;13.35;9.15;;;;;;;15.13;58.40;99554.47;4936978;29;20063;-71
2022/12/01 03:09:28;;;;;;;;;;;;;;;15.16;58.54;99557.00;4937361;29;20477;-68
2022/12/01 03:12:03;;;;;;;12.68;9.90;;;;;;;15.13;58.49;99558.88;4936939;29;20383;-71
2022/12/01 03:14:28;;;;;;;11.73;9.20;;;;;;;15.13;58.56;99561.50;4936776;29;20108;-70
2022/12/01 03:16:56;;;;;;;11.90;8.70;;;;;;;15.14;58.44;99561.44;4936922;29;20126;-71
2022/12/01 03:19:31;;;;;;;11.77;8.48;;;;;;;15.15;58.33;99565.78;4936480;29;20032;-70
2022/12/01 03:22:11;;;;;;;12.88;9.02;;;;;;;15.14;58.49;99569.34;4936704;29;20511;-70
2022/12/01 03:24:40;;;;;;;13.32;9.63;;;;;;;15.11;58.28;99568.59;4936610;29;20481;-70
2022/12/01 03:27:08;;;;;;;14.10;9.77;;;;;;;15.12;58.45;99575.56;4936233;29;20464;-70
2022/12/01 03:29:54;;;;;;;13.40;9.40;;;;;;;15.14;58.54;99573.72;4936421;29;21094;-71
2022/12/01 03:32:40;;;;;;;13.68;9.77;;;;;;;15.12;58.30;99570.31;4944100;29;20488;-70
2022/12/01 03:35:13;;;;;;;13.67;9.83;;;;;;;15.11;58.57;99571.22;4955317;29;20035;-70
2022/12/01 03:37:48;;;;;;;12.98;10.00;;;;;;;15.12;58.35;99575.56;4955740;29;20480;-70
2022/12/01 03:40:18;;;;;;;14.30;10.38;;;;;;;15.12;58.35;99581.66;4955525;29;20642;-70
2022/12/01 03:42:44;;;;;;;12.60;8.98;;;;;;;15.12;58.28;99581.66;4955357;29;20019;-68
2022/12/01 03:45:16;;;;;;;12.15;8.80;;;;;;;15.12;58.07;99578.19;4938214;29;20118;-70
2022/12/01 03:47:42;;;;;;;12.38;8.98;;;;;;;15.12;58.34;99575.56;4955038;29;20514;-71
2022/12/01 03:50:12;;;;;;;13.70;9.43;;;;;;;15.10;58.23;99578.22;4955396;29;20027;-69
2022/12/01 03:52:59;;;;;;;13.55;9.43;;;;;;;15.13;58.34;99579.91;4955147;29;20060;-70
2022/12/01 03:55:28;;;;;;;12.52;9.52;;;;;;;15.12;58.11;99581.66;4955235;29;20495;-70
2022/12/01 03:58:17;;;;;;;13.40;9.48;;;;;;;15.08;58.41;99589.69;4955255;29;20471;-70
2022/12/01 04:00:45;;;;;;;12.98;9.50;;;;;;;15.10;58.33;99577.34;4955144;29;20054;-71
2022/12/01 04:03:17;;;;;;;13.02;10.38;;;;;;;15.05;58.26;99580.16;4954778;29;20484;-71
2022/12/01 04:05:43;;;;;;;13.48;9.75;;;;;;;15.07;58.39;99588.88;4955075;29;20027;-70
2022/12/01 04:08:08;;;;;;;14.07;9.75;;;;;;;15.06;58.35;99581.03;4955119;29;20373;-70
2022/12/01 04:10:33;;;;;;;14.90;9.90;;;;;;;15.05;58.15;99584.56;4954924;29;20023;-70
2022/12/01 04:12:59;;;;;;;13.20;10.13;;;;;;;15.03;58.16;99587.25;4955018;29;20476;-71
2022/12/01 04:15:26;;;;;;;13.77;9.95;;;;;;;15.06;58.05;99588.91;4954907;29;20034;-71
2022/12/01 04:17:51;;;;;;;13.20;10.30;;;;;;;15.05;58.29;99587.19;4954697;29;20110;-71
2022/12/01 04:20:17;;;;;;;12.57;9.32;;;;;;;15.03;58.04;99582.81;4954843;29;20110;-68
2022/12/01 04:22:43;;;;;;;15.00;9.85;;;;;;;15.03;58.39;99584.63;4954387;29;20152;-70
2022/12/01 04:25:09;;;;;;;12.95;9.57;;;;;;;15.02;58.27;99586.38;4954916;29;20118;-71
2022/12/01 04:27:35;;;;;;;13.88;9.52;;;;;;;14.97;58.35;99583.03;4954838;29;20031;-70
2022/12/01 04:30:00;;;;;;;14.95;10.85;;;;;;;14.97;58.17;99588.28;4937325;29;20042;-70
2022/12/01 04:32:26;;;;;;;13.77;10.07;;;;;;;15.01;58.08;99589.06;4954279;29;20028;-70
2022/12/01 04:34:52;;;;;;;12.93;9.88;;;;;;;15.01;58.10;99591.69;4954762;29;20019;-71
2022/12/01 04:37:18;;;;;;;14.07;9.80;;;;;;;14.99;58.34;99596.13;4954486;28;20169;-71
2022/12/01 04:39:43;;;;;;;13.70;10.15;;;;;;;14.99;58.03;99601.38;4954249;29;20028;-71
2022/12/01 04:42:09;;;;;;;12.80;9.32;;;;;;;14.97;58.07;99609.31;4954630;29;20118;-71
2022/12/01 04:44:35;;;;;;;14.10;10.57;;;;;;;14.96;58.33;99607.59;4954476;29;20039;-70
2022/12/01 04:47:00;;;;;;;12.65;9.55;;;;;;;15.00;58.24;99606.59;4954224;29;20023;-70
2022/12/01 04:49:26;;;;;;;14.10;9.80;;;;;;;14.95;58.25;99600.63;4954658;29;20424;-70
2022/12/01 04:51:51;;;;;;;13.10;9.45;;;;;;;14.97;58.11;99604.06;4954527;29;20547;-71
2022/12/01 04:54:17;;;;;;;12.77;9.40;;;;;;;14.97;58.27;99598.81;4954427;29;20035;-69
2022/12/01 04:56:43;;;;;;;13.95;9.60;;;;;;;14.97;57.95;99604.06;4954434;29;20098;-70
2022/12/01 04:59:08;;;;;;;13.48;9.45;;;;;;;15.00;57.90;99603.97;4954005;29;20019;-70
2022/12/01 05:01:34;;;;;;;14.65;10.88;;;;;;;14.99;57.83;99607.50;4954213;29;20031;-70
2022/12/01 05:04:00;;;;;;;12.05;9.15;;;;;;;14.97;57.95;99600.59;4954273;29;20023;-70
2022/12/01 05:06:27;;;;;;;13.63;9.55;;;;;;;14.97;58.14;99604.06;4954344;29;20028;-71
2022/12/01 05:08:57;;;;;;;13.25;9.38;;;;;;;14.97;58.11;99604.06;4954281;29;20403;-69
2022/12/01 05:11:25;;;;;;;14.35;9.65;;;;;;;14.97;58.03;99597.97;4954253;29;20114;-71
2022/12/01 05:13:50;;;;;;;13.63;9.38;;;;;;;14.96;57.85;99596.25;4954283;29;20027;-70
2022/12/01 05:16:24;;;;;;;13.13;9.80;;;;;;;14.94;58.23;99604.19;4954117;29;20110;-70
2022/12/01 05:20:55;;;;;;;13.52;9.30;;;;;;;14.96;58.00;99612.84;4954242;29;20484;-70
2022/12/01 05:21:38;;;;;;;13.15;9.98;;;;;;;14.96;57.92;99606.75;4954206;29;21163;-71
2022/12/01 05:24:05;;;;;;;14.18;10.18;;;;;;;14.94;58.14;99612.06;4954137;29;20118;-70
2022/12/01 05:26:30;;;;;;;13.50;10.05;;;;;;;14.96;57.90;99614.66;4954268;29;20055;-71
2022/12/01 05:28:56;;;;;;;13.13;9.75;;;;;;;14.96;58.15;99612.03;4954019;29;20126;-70
2022/12/01 05:31:21;;;;;;;14.35;10.40;;;;;;;14.94;58.00;99606.81;4953832;29;20034;-69
2022/12/01 05:33:46;;;;;;;15.25;10.60;;;;;;;14.92;58.11;99600.75;4954098;29;20123;-71
2022/12/01 05:36:12;;;;;;;13.80;9.88;;;;;;;14.93;58.10;99607.72;4954178;29;20114;-70
2022/12/01 05:38:37;;;;;;;14.77;10.55;;;;;;;14.92;58.18;99595.50;4954049;29;20034;-70
2022/12/01 05:41:03;;;;;;;13.30;8.80;;;;;;;14.94;57.93;99604.19;4953883;29;20021;-70
2022/12/01 05:43:28;;;;;;;14.95;9.88;;;;;;;14.93;58.03;99602.47;4953950;29;20023;-71
2022/12/01 05:45:54;;;;;;;14.88;10.32;;;;;;;14.92;58.03;99606.00;4936495;29;20028;-71
2022/12/01 05:48:20;;;;;;;14.73;9.88;;;;;;;14.91;57.96;99614.78;4953994;29;20598;-70
2022/12/01 05:50:45;;;;;;;12.93;9.32;;;;;;;14.90;58.09;99613.06;4956948;28;20106;-70
2022/12/01 05:53:12;;;;;;;14.05;9.60;;;;;;;14.88;58.07;99609.63;4940196;29;20054;-70
2022/12/01 05:55:38;;;;;;;14.02;10.52;;;;;;;14.90;58.10;99605.19;4957477;29;20387;-71
2022/12/01 05:58:03;;;;;;;14.85;10.68;;;;;;;14.86;58.21;99604.44;4957370;29;20110;-70
